Time;durP1;ratioP1;P1;durP2;ratioP2;P2;SDS_P1;SDS_P2;PMS_P1;PMS_P2;Temp;Humidity;BMP_temperature;BMP_pressure;BME280_temperature;BME280_humidity;BME280_pressure;Samples;Min_cycle;Max_cycle;Signal;HPM_P1;HPM_P2
2022/12/29 00:00:05;;;;;;;;;;;;;;;-1.05;86.62;99499.47;4920450;29;19954;-67
2022/12/29 00:02:38;;;;;;;;;;;;;;;-1.08;86.49;99502.56;4921272;29;20398;-66
2022/12/29 00:05:04;;;;;;;;;;;;;;;-1.06;86.71;99506.72;4924521;29;19938;-68
2022/12/29 00:07:30;;;;;;;;;;;;;;;-1.06;86.35;99504.03;4924991;29;19978;-67
2022/12/29 00:09:57;;;;;;;;;;;;;;;-1.08;86.35;99503.41;4926238;29;20362;-66
2022/12/29 00:12:23;;;;;;;;;;;;;;;-1.25;86.18;99507.50;4920500;29;19931;-66
2022/12/29 00:17:32;;;;;;;;;;;;;;;-1.42;86.44;99505.19;4905854;29;19938;-66
2022/12/29 00:36:29;;;;;;;;;;;;;;;-1.80;84.77;99509.22;4905878;29;19930;-66
2022/12/29 00:44:26;;;;;;;;;;;;;;;-1.69;82.77;99534.63;4905305;29;19931;-66
2022/12/29 00:46:51;;;;;;;;;;;;;;;-1.68;82.42;99538.13;4904662;29;19958;-66
2022/12/29 00:49:30;;;;;;;;;;;;;;;-1.68;82.10;99532.75;4903932;29;19938;-66
2022/12/29 00:51:56;;;;;;;;;;;;;;;-1.67;82.35;99535.25;4906675;29;19966;-66
2022/12/29 00:54:22;;;;;;;;;;;;;;;-1.67;81.87;99535.25;4909437;29;19931;-66
2022/12/29 00:56:50;;;;;;;;;;;;;;;-1.73;81.74;99536.88;4909752;29;19931;-66
2022/12/29 00:59:16;;;;;;;;;;;;;;;-1.77;81.97;99530.28;4906300;29;19930;-66
2022/12/29 01:01:42;;;;;;;;;;;;;;;-1.78;82.05;99534.00;4908833;29;19931;-67
2022/12/29 01:04:08;;;;;;;;;;;;;;;-1.81;81.28;99537.03;4906709;29;19931;-66
2022/12/29 01:06:35;;;;;;;;;;;;;;;-1.87;81.07;99540.53;4909023;29;19935;-66
2022/12/29 01:11:45;;;;;;;;;;;;;;;-1.93;80.70;99535.97;4924834;29;20273;-67
2022/12/29 01:14:12;;;;;;;;;;;;;;;-1.92;80.31;99546.50;4910717;29;19938;-67
2022/12/29 01:16:38;;;;;;;;;;;;;;;-1.94;80.07;99550.41;4909529;29;19931;-68
2022/12/29 01:19:04;;;;;;;;;;;;;;;-2.02;80.32;99540.69;4924786;29;20445;-67
2022/12/29 01:21:30;;;;;;;;;;;;;;;-2.01;80.76;99543.16;4906723;29;19938;-68
2022/12/29 01:23:55;;;;;;;;;;;;;;;-1.92;81.19;99541.13;4908480;29;20086;-67
2022/12/29 01:26:21;;;;;;;;;;;;;;;-1.79;80.87;99547.56;4893776;29;19937;-67
2022/12/29 01:28:47;;;;;;;;;;;;;;;-1.75;80.59;99532.75;4923808;29;19982;-68
2022/12/29 01:31:15;;;;;;;;;;;;;;;-1.71;80.43;99550.09;4907901;29;20319;-67
2022/12/29 01:33:41;;;;;;;;;;;;;;;-1.69;80.23;99550.72;4924116;29;19978;-67
2022/12/29 01:36:07;;;;;;;;;;;;;;;-1.65;80.25;99537.72;4906599;29;19931;-68
2022/12/29 01:38:33;;;;;;;;;;;;;;;-1.63;80.19;99541.06;4906406;29;19970;-68
2022/12/29 01:41:00;;;;;;;;;;;;;;;-1.75;80.38;99548.81;4907713;29;19931;-67
2022/12/29 01:43:38;;;;;;;;;;;;;;;-1.82;80.76;99548.78;4907587;29;19931;-67
2022/12/29 01:46:04;;;;;;;;;;;;;;;-1.86;80.45;99560.94;4909163;29;19990;-67
2022/12/29 01:48:31;;;;;;;;;;;;;;;-1.94;80.71;99553.09;4907513;29;19935;-67
2022/12/29 01:50:56;;;;;;;;;;;;;;;-2.03;80.68;99561.28;4907294;29;19938;-67
2022/12/29 01:53:26;;;;;;;;;;;;;;;-2.07;81.10;99554.66;4922745;29;19935;-67
2022/12/29 01:55:55;;;;;;;;;;;;;;;-2.09;81.13;99554.03;4906340;29;19935;-67
2022/12/29 01:58:24;;;;;;;;;;;;;;;-2.12;81.42;99558.97;4906888;29;19938;-67
2022/12/29 02:00:50;;;;;;;;;;;;;;;-2.15;81.37;99549.47;4906843;29;19937;-67
2022/12/29 02:03:17;;;;;;;;;;;;;;;-2.15;81.40;99560.19;4921907;29;19931;-67
2022/12/29 02:05:48;;;;;;;;;;;;;;;-2.10;81.48;99551.56;4906534;29;19931;-67
2022/12/29 02:08:14;;;;;;;;;;;;;;;-2.09;81.22;99547.84;4908525;29;20474;-67
2022/12/29 02:10:41;;;;;;;;;;;;;;;-2.09;80.93;99547.84;4908286;29;19970;-67
2022/12/29 02:13:07;;;;;;;;;;;;;;;-2.08;80.88;99565.56;4907135;29;19938;-67
2022/12/29 02:16:01;;;;;;;;;;;;;;;-2.10;80.98;99559.59;4918662;29;19931;-67
2022/12/29 02:18:34;;;;;;;;;;;;;;;-2.17;81.05;99563.06;4922776;28;19938;-65
2022/12/29 02:21:14;;;;;;;;;;;;;;;-2.21;80.89;99563.66;4925227;29;20494;-65
2022/12/29 02:24:04;;;;;;;;;;;;;;;-2.21;81.01;99564.47;4908664;29;19967;-66
2022/12/29 02:26:40;;;;;;;;;;;;;;;-2.18;80.93;99565.94;4905779;29;20033;-66
2022/12/29 02:29:13;;;;;;;;;;;;;;;-2.16;81.09;99563.88;4906997;29;20030;-66
2022/12/29 02:31:42;;;;;;;;;;;;;;;-2.19;81.10;99562.41;4906169;29;19975;-66
2022/12/29 02:34:17;;;;;;;;;;;;;;;-2.21;81.15;99567.16;4921491;29;20379;-66
2022/12/29 02:36:47;;;;;;;;;;;;;;;-2.35;81.34;99558.22;4921484;29;19931;-65
2022/12/29 02:39:18;;;;;;;;;;;;;;;-2.35;81.39;99573.44;4905930;29;19931;-65
2022/12/29 02:41:50;;;;;;;;;;;;;;;-2.42;81.44;99578.75;4909258;29;19998;-67
2022/12/29 02:44:22;;;;;;;;;;;;;;;-2.51;81.50;99571.91;4922059;29;19946;-67
2022/12/29 02:46:53;;;;;;;;;;;;;;;-2.62;81.52;99576.75;4922860;29;19931;-67
2022/12/29 02:49:20;;;;;;;;;;;;;;;-2.75;81.86;99566.78;4907649;29;19931;-67
2022/12/29 02:51:50;;;;;;;;;;;;;;;-2.79;82.29;99573.53;4906078;29;19935;-67
2022/12/29 02:57:01;;;;;;;;;;;;;;;-2.73;82.80;99577.28;4906815;29;19931;-67
2022/12/29 02:59:27;;;;;;;;;;;;;;;-2.65;83.08;99576.34;4889419;29;19938;-67
2022/12/29 03:02:20;;;;;;;;;;;;;;;-2.65;82.90;99582.50;4906449;29;19934;-67
2022/12/29 03:04:58;;;;;;;;;;;;;;;-2.67;82.92;99584.53;4921944;29;19931;-67
2022/12/29 03:07:29;;;;;;;;;;;;;;;-2.64;82.97;99586.00;4906932;29;19942;-67
2022/12/29 03:10:01;;;;;;;;;;;;;;;-2.68;82.80;99580.22;4920887;29;20041;-68
2022/12/29 03:18:05;;;;;;;;;;;;;;;-2.74;82.86;99589.00;4908104;29;19931;-66
2022/12/29 03:20:36;;;;;;;;;;;;;;;-2.68;82.94;99590.06;4904988;29;19974;-66
2022/12/29 03:23:05;;;;;;;;;;;;;;;-2.61;82.78;99612.41;4906642;29;19934;-67
2022/12/29 03:25:37;;;;;;;;;;;;;;;-2.68;82.72;99609.66;4905425;29;19935;-66
2022/12/29 03:28:08;;;;;;;;;;;;;;;-2.84;82.91;99616.09;4905518;29;19938;-66
2022/12/29 03:30:41;;;;;;;;;;;;;;;-2.97;83.57;99613.28;4905004;29;20319;-66
2022/12/29 03:33:10;;;;;;;;;;;;;;;-3.05;83.62;99623.09;4907015;29;19938;-66
2022/12/29 03:35:38;;;;;;;;;;;;;;;-3.02;83.96;99637.94;4906627;29;19931;-66
2022/12/29 03:38:11;;;;;;;;;;;;;;;-3.04;83.72;99619.41;4889960;29;19931;-66
2022/12/29 03:40:38;;;;;;;;;;;;;;;-3.02;84.15;99627.25;4905412;29;20430;-66
2022/12/29 03:43:04;;;;;;;;;;;;;;;-3.02;84.21;99624.56;4905892;29;20407;-66
2022/12/29 03:45:32;;;;;;;;;;;;;;;-3.05;84.01;99625.78;4903872;29;20414;-66
2022/12/29 03:47:57;;;;;;;;;;;;;;;-3.06;84.19;99617.94;4905932;29;20021;-66
2022/12/29 03:50:24;;;;;;;;;;;;;;;-3.06;84.23;99637.50;4920792;29;19953;-66
2022/12/29 03:52:50;;;;;;;;;;;;;;;-3.08;83.98;99636.00;4906521;29;19942;-65
2022/12/29 03:55:16;;;;;;;;;;;;;;;-3.08;84.23;99634.19;4906006;29;19931;-67
2022/12/29 03:57:42;;;;;;;;;;;;;;;-2.94;84.18;99640.50;4920987;29;20398;-66
2022/12/29 04:00:13;;;;;;;;;;;;;;;-2.85;84.01;99642.03;4907507;29;19935;-66
2022/12/29 04:02:41;;;;;;;;;;;;;;;-2.78;83.82;99646.63;4902678;29;19935;-66
2022/12/29 04:05:10;;;;;;;;;;;;;;;-2.77;83.49;99650.94;4905202;29;19931;-66
2022/12/29 04:07:38;;;;;;;;;;;;;;;-2.73;83.73;99645.03;4906812;29;19931;-66
2022/12/29 04:10:07;;;;;;;;;;;;;;;-2.76;83.30;99645.41;4920652;29;20048;-66
2022/12/29 04:12:34;;;;;;;;;;;;;;;-2.82;82.99;99654.19;4907561;29;20395;-67
2022/12/29 04:15:00;;;;;;;;;;;;;;;-2.90;83.31;99648.97;4920917;28;19931;-68
2022/12/29 04:17:26;;;;;;;;;;;;;;;-2.99;83.36;99646.41;4906845;29;20339;-67
2022/12/29 04:20:59;;;;;;;;;;;;;;;-3.06;83.45;99650.88;4903747;29;19931;-67
2022/12/29 04:22:40;;;;;;;;;;;;;;;-3.05;83.62;99649.00;4902841;29;20037;-68
2022/12/29 04:25:07;;;;;;;;;;;;;;;-3.06;83.44;99650.88;4905703;29;19994;-67
2022/12/29 04:27:33;;;;;;;;;;;;;;;-3.07;83.43;99651.88;4907122;29;19938;-67
2022/12/29 04:30:17;;;;;;;;;;;;;;;-3.04;83.68;99659.53;4923926;29;19931;-67
2022/12/29 04:32:53;;;;;;;;;;;;;;;-3.05;83.62;99649.00;4924287;29;19931;-67
2022/12/29 04:35:18;;;;;;;;;;;;;;;-3.03;83.41;99650.50;4923504;29;20355;-67
2022/12/29 04:37:46;;;;;;;;;;;;;;;-3.04;83.07;99653.38;4909373;28;20315;-67
2022/12/29 04:40:11;;;;;;;;;;;;;;;-3.04;82.83;99650.69;4923921;29;19942;-66
2022/12/29 04:42:38;;;;;;;;;;;;;;;-3.06;82.64;99655.38;4923797;29;19935;-66
2022/12/29 04:45:05;;;;;;;;;;;;;;;-3.12;82.79;99657.00;4923674;29;19931;-67
2022/12/29 04:47:49;;;;;;;;;;;;;;;-3.13;82.89;99661.50;4909456;29;19978;-66
2022/12/29 04:50:48;;;;;;;;;;;;;;;-3.13;82.97;99656.16;4900192;29;20038;-65
2022/12/29 04:53:17;;;;;;;;;;;;;;;-3.17;82.43;99664.72;4891449;29;19931;-65
2022/12/29 04:55:44;;;;;;;;;;;;;;;-3.26;82.56;99656.00;4925987;29;19938;-67
2022/12/29 04:58:10;;;;;;;;;;;;;;;-3.36;82.29;99660.78;4909451;29;20411;-67
2022/12/29 05:00:36;;;;;;;;;;;;;;;-3.45;82.57;99668.09;4908373;29;19942;-67
2022/12/29 05:03:02;;;;;;;;;;;;;;;-3.50;82.89;99663.31;4913577;28;19938;-67
2022/12/29 05:05:28;;;;;;;;;;;;;;;-3.54;82.84;99669.22;4568536;28;10000201;-66
2022/12/29 05:07:56;;;;;;;;;;;;;;;-3.59;82.87;99675.97;4911519;29;19950;-67
2022/12/29 05:10:23;;;;;;;;;;;;;;;-3.64;82.99;99670.31;4907131;29;20030;-65
2022/12/29 05:12:51;;;;;;;;;;;;;;;-3.67;83.31;99673.38;4905666;29;20418;-65
2022/12/29 05:15:17;;;;;;;;;;;;;;;-3.69;83.29;99672.72;4907748;29;19931;-65
2022/12/29 05:17:43;;;;;;;;;;;;;;;-3.72;83.40;99684.59;4881164;29;20087;-67
2022/12/29 05:20:09;;;;;;;;;;;;;;;-3.74;83.74;99683.16;4906176;29;20053;-67
2022/12/29 05:22:36;;;;;;;;;;;;;;;-3.71;83.94;99686.25;4905068;29;19978;-67
2022/12/29 05:25:02;;;;;;;;;;;;;;;-3.68;83.91;99689.56;4908722;29;20443;-66
2022/12/29 05:27:29;;;;;;;;;;;;;;;-3.70;83.83;99681.75;4904591;29;19942;-67
2022/12/29 05:30:14;;;;;;;;;;;;;;;-3.70;83.82;99687.91;4904520;29;19931;-67
2022/12/29 05:32:40;;;;;;;;;;;;;;;-3.75;83.91;99679.63;4903669;29;20378;-67
2022/12/29 05:35:07;;;;;;;;;;;;;;;-3.81;83.94;99685.72;4903975;29;20147;-67
2022/12/29 05:37:33;;;;;;;;;;;;;;;-3.87;84.35;99683.78;4910891;29;19982;-67
2022/12/29 05:39:59;;;;;;;;;;;;;;;-3.88;84.34;99693.63;4922493;29;20040;-66
2022/12/29 05:42:25;;;;;;;;;;;;;;;-3.88;84.48;99690.13;4906322;29;20038;-66
2022/12/29 05:44:58;;;;;;;;;;;;;;;-3.90;84.33;99706.34;4907163;29;19970;-67
2022/12/29 05:47:56;;;;;;;;;;;;;;;-3.95;84.79;99700.72;4900381;29;19931;-67
2022/12/29 05:50:47;;;;;;;;;;;;;;;-3.99;84.85;99705.56;4905447;29;19953;-67
2022/12/29 05:53:13;;;;;;;;;;;;;;;-3.91;85.16;99704.66;4902251;29;20026;-67
2022/12/29 05:55:40;;;;;;;;;;;;;;;-3.70;85.16;99708.50;4905503;29;20449;-66
2022/12/29 05:58:06;;;;;;;;;;;;;;;-3.50;84.73;99703.44;4906779;29;20423;-66
2022/12/29 06:00:34;;;;;;;;;;;;;;;-3.42;84.07;99699.81;4908451;29;19942;-66
2022/12/29 06:02:59;;;;;;;;;;;;;;;-3.36;83.83;99708.94;4908636;29;19931;-66
2022/12/29 06:05:25;;;;;;;;;;;;;;;-3.28;83.65;99707.00;4907162;29;19931;-66
2022/12/29 06:07:51;;;;;;;;;;;;;;;-3.28;83.48;99701.66;4905529;29;19990;-67
2022/12/29 06:10:17;;;;;;;;;;;;;;;-3.32;83.38;99708.38;4909745;29;19931;-66
2022/12/29 06:13:05;;;;;;;;;;;;;;;-3.38;83.30;99702.94;4907313;29;19966;-66
2022/12/29 06:15:35;;;;;;;;;;;;;;;-3.44;83.44;99707.19;4906564;29;20174;-66
2022/12/29 06:18:04;;;;;;;;;;;;;;;-3.47;83.68;99705.72;4893365;29;19931;-67
2022/12/29 06:20:29;;;;;;;;;;;;;;;-3.46;83.67;99706.53;4893118;29;19986;-68
2022/12/29 06:22:55;;;;;;;;;;;;;;;-3.50;83.92;99714.13;4909173;29;20356;-67
2022/12/29 06:25:22;;;;;;;;;;;;;;;-3.47;84.19;99719.09;4907539;29;20104;-67
2022/12/29 06:27:48;;;;;;;;;;;;;;;-3.36;84.15;99720.47;4908664;29;20324;-67
2022/12/29 06:30:14;;;;;;;;;;;;;;;-3.24;83.89;99717.31;4909543;29;19931;-67
2022/12/29 06:32:42;;;;;;;;;;;;;;;-3.16;83.37;99714.53;4912949;29;20334;-68
2022/12/29 06:35:10;;;;;;;;;;;;;;;-3.08;83.08;99713.59;4912984;29;19931;-67
2022/12/29 06:37:41;;;;;;;;;;;;;;;-3.00;82.89;99721.53;4908455;29;19931;-67
2022/12/29 06:40:07;;;;;;;;;;;;;;;-3.00;82.35;99722.34;4906231;29;19931;-67
2022/12/29 06:42:49;;;;;;;;;;;;;;;-3.09;82.28;99719.97;4906948;29;20034;-68
2022/12/29 06:45:32;;;;;;;;;;;;;;;-3.16;82.36;99714.53;4914207;29;19935;-67
2022/12/29 06:47:59;;;;;;;;;;;;;;;-3.21;82.66;99719.63;4911216;29;20326;-67
2022/12/29 06:50:24;;;;;;;;;;;;;;;-3.21;82.75;99717.75;4911081;29;19970;-68
2022/12/29 06:52:50;;;;;;;;;;;;;;;-3.10;82.95;99723.66;4912137;29;19969;-67
2022/12/29 06:55:16;;;;;;;;;;;;;;;-3.01;82.68;99720.69;4911261;29;19986;-67
2022/12/29 06:57:42;;;;;;;;;;;;;;;-2.96;82.34;99725.47;4908865;29;19931;-67
2022/12/29 07:00:08;;;;;;;;;;;;;;;-2.94;82.27;99730.66;4908889;29;19958;-67
2022/12/29 07:02:34;;;;;;;;;;;;;;;-2.91;82.26;99724.94;4895536;29;20426;-67
2022/12/29 07:05:01;;;;;;;;;;;;;;;-2.90;81.85;99726.59;4910818;29;19931;-67
2022/12/29 07:07:28;;;;;;;;;;;;;;;-2.85;81.95;99725.00;4911290;29;20371;-67
2022/12/29 07:09:54;;;;;;;;;;;;;;;-2.73;81.76;99725.34;4913593;29;19935;-67
2022/12/29 07:12:19;;;;;;;;;;;;;;;-2.60;81.56;99719.28;4911536;29;19931;-67
2022/12/29 07:14:45;;;;;;;;;;;;;;;-2.49;81.43;99725.16;4909477;29;20532;-67
2022/12/29 07:17:11;;;;;;;;;;;;;;;-2.39;81.18;99727.50;4910047;29;20308;-68
2022/12/29 07:19:36;;;;;;;;;;;;;;;-2.40;80.81;99725.88;4911365;29;19931;-67
2022/12/29 07:22:03;;;;;;;;;;;;;;;-2.49;80.92;99723.31;4910914;29;19930;-68
2022/12/29 07:24:29;;;;;;;;;;;;;;;-2.54;80.82;99719.56;4895031;29;19931;-67
2022/12/29 07:26:55;;;;;;;;;;;;;;;-2.51;80.84;99729.88;4910200;29;20478;-68
2022/12/29 07:29:21;;;;;;;;;;;;;;;-2.54;80.50;99722.22;4909824;29;19937;-67
2022/12/29 07:31:46;;;;;;;;;;;;;;;-2.55;80.47;99726.75;4910654;29;19931;-67
2022/12/29 07:34:12;;;;;;;;;;;;;;;-2.51;80.03;99735.22;4911869;29;19931;-67
2022/12/29 07:36:38;;;;;;;;;;;;;;;-2.42;80.13;99734.06;4908170;29;19931;-67
2022/12/29 07:39:05;;;;;;;;;;;;;;;-2.21;80.08;99740.47;4908055;29;19931;-67
2022/12/29 07:41:31;;;;;;;;;;;;;;;-2.02;79.54;99731.75;4910617;29;19934;-68
2022/12/29 07:43:58;;;;;;;;;;;;;;;-1.89;78.89;99735.56;4908728;29;19931;-68
2022/12/29 07:46:33;;;;;;;;;;;;;;;-1.94;78.26;99725.44;4894226;29;19931;-67
2022/12/29 07:48:59;;;;;;;;;;;;;;;-2.14;77.81;99736.81;4912712;29;20026;-68
2022/12/29 07:51:24;;;;;;;;;;;;;;;-2.30;78.23;99735.22;4910955;29;19978;-67
2022/12/29 07:53:50;;;;;;;;;;;;;;;-2.36;78.53;99740.53;4910496;29;20025;-67
2022/12/29 07:56:17;;;;;;;;;;;;;;;-2.31;78.52;99743.47;4911166;29;19981;-67
2022/12/29 07:58:43;;;;;;;;;;;;;;;-2.35;78.69;99743.03;4909236;29;19931;-68
2022/12/29 08:01:09;;;;;;;;;;;;;;;-2.37;78.74;99749.56;4911562;29;20411;-67
2022/12/29 08:03:36;;;;;;;;;;;;;;;-2.40;78.74;99755.31;4915150;29;19954;-68
2022/12/29 08:06:01;;;;;;;;;;;;;;;-2.42;78.81;99750.16;4914917;29;19942;-68
2022/12/29 08:08:27;;;;;;;;;;;;;;;-2.28;78.58;99753.81;4914179;29;19976;-67
2022/12/29 08:10:53;;;;;;;;;;;;;;;-2.14;78.04;99750.22;4913997;29;19970;-67
2022/12/29 08:13:20;;;;;;;;;;;;;;;-1.96;77.79;99750.75;4915410;29;19953;-68
2022/12/29 08:15:45;;;;;;;;;;;;;;;-1.75;77.11;99757.94;4914555;29;19990;-68
2022/12/29 08:18:11;;;;;;;;;;;;;;;-1.60;76.30;99763.22;4914323;29;19954;-67
2022/12/29 08:20:37;;;;;;;;;;;;;;;-1.56;76.29;99759.13;4914534;29;19931;-68
2022/12/29 08:23:03;;;;;;;;;;;;;;;-1.53;75.94;99768.63;4911257;29;19970;-67
2022/12/29 08:25:28;;;;;;;;;;;;;;;-1.60;75.71;99761.34;4912877;29;19978;-67
2022/12/29 08:27:54;;;;;;;;;;;;;;;-1.64;75.53;99761.94;4914269;29;19935;-67
2022/12/29 08:30:21;;;;;;;;;;;;;;;-1.64;75.66;99760.09;4912898;29;19970;-68
2022/12/29 08:32:47;;;;;;;;;;;;;;;-1.64;75.30;99762.78;4913533;29;19931;-67
2022/12/29 08:35:13;;;;;;;;;;;;;;;-1.73;75.75;99758.56;4913589;29;20457;-68
2022/12/29 08:37:39;;;;;;;;;;;;;;;-1.75;75.81;99758.78;4913717;29;19935;-67
2022/12/29 08:40:05;;;;;;;;;;;;;;;-1.62;75.54;99766.09;4913650;29;19986;-68
2022/12/29 08:42:31;;;;;;;;;;;;;;;-1.61;75.28;99766.94;4912686;29;20025;-67
2022/12/29 08:44:57;;;;;;;;;;;;;;;-1.60;75.11;99766.72;4913758;29;20166;-67
2022/12/29 08:47:25;;;;;;;;;;;;;;;-1.64;75.14;99768.13;4911836;29;20403;-67
2022/12/29 08:49:51;;;;;;;;;;;;;;;-1.58;75.42;99764.66;4912824;29;19987;-68
2022/12/29 08:52:16;;;;;;;;;;;;;;;-1.51;74.85;99766.59;4914804;29;19935;-68
2022/12/29 08:54:42;;;;;;;;;;;;;;;-1.37;74.44;99765.63;4895960;29;20032;-67
2022/12/29 08:57:08;;;;;;;;;;;;;;;-1.23;73.62;99763.84;4911919;29;19935;-67
2022/12/29 08:59:39;;;;;;;;;;;;;;;-0.98;73.09;99760.69;4912726;29;20017;-68
2022/12/29 09:02:06;;;;;;;;;;;;;;;-1.09;72.53;99759.41;4911480;29;20030;-67
2022/12/29 09:04:33;;;;;;;;;;;;;;;-1.41;72.45;99763.53;4914364;29;19931;-67
2022/12/29 09:06:58;;;;;;;;;;;;;;;-1.81;73.79;99764.09;4913514;29;20395;-67
2022/12/29 09:09:24;;;;;;;;;;;;;;;-2.08;74.72;99764.72;4913886;29;19931;-67
2022/12/29 09:11:50;;;;;;;;;;;;;;;-2.17;75.59;99764.00;4911675;29;19986;-67
2022/12/29 09:14:16;;;;;;;;;;;;;;;-2.17;75.84;99765.84;4914613;29;19935;-67
2022/12/29 09:19:25;;;;;;;;;;;;;;;-1.94;76.08;99768.31;4914180;29;19931;-67
2022/12/29 09:21:52;;;;;;;;;;;;;;;-1.91;75.89;99767.91;4914247;29;19942;-67
2022/12/29 09:24:18;;;;;;;;;;;;;;;-1.87;75.45;99769.22;4912583;29;20358;-67
2022/12/29 09:26:44;;;;;;;;;;;;;;;-1.89;75.16;99781.16;4913564;29;19931;-67
2022/12/29 09:29:10;;;;;;;;;;;;;;;-1.89;75.34;99765.88;4914699;29;19931;-67
2022/12/29 09:31:35;;;;;;;;;;;;;;;-1.82;75.35;99765.94;4913022;29;19931;-67
2022/12/29 09:34:01;;;;;;;;;;;;;;;-1.70;74.95;99760.88;4913252;29;19930;-68
2022/12/29 09:36:27;;;;;;;;;;;;;;;-1.68;74.91;99766.88;4913621;29;19973;-67
2022/12/29 09:38:54;;;;;;;;;;;;;;;-1.68;74.36;99760.69;4912374;29;20326;-67
2022/12/29 09:41:25;;;;;;;;;;;;;;;-1.74;74.41;99755.06;4912814;29;19931;-68
2022/12/29 09:43:58;;;;;;;;;;;;;;;-1.76;74.63;99761.66;4912292;29;20030;-67
2022/12/29 09:46:25;;;;;;;;;;;;;;;-1.72;74.44;99770.94;4911259;29;19931;-67
2022/12/29 09:48:54;;;;;;;;;;;;;;;-1.65;74.71;99766.47;4911504;29;19931;-67
2022/12/29 09:51:22;;;;;;;;;;;;;;;-1.58;74.59;99767.34;4911398;29;20312;-67
2022/12/29 09:53:52;;;;;;;;;;;;;;;-1.50;74.53;99766.38;4912528;29;19931;-67
2022/12/29 09:56:20;;;;;;;;;;;;;;;-1.41;74.09;99772.41;4911563;29;19939;-68
2022/12/29 09:58:51;;;;;;;;;;;;;;;-1.35;73.85;99768.94;4913050;29;20139;-68
2022/12/29 10:01:23;;;;;;;;;;;;;;;-1.36;73.72;99766.44;4910120;29;20010;-67
2022/12/29 10:03:50;;;;;;;;;;;;;;;-1.44;73.80;99767.44;4911593;29;20379;-67
2022/12/29 10:06:19;;;;;;;;;;;;;;;-1.40;74.11;99770.56;4912328;29;19931;-68
2022/12/29 10:08:48;;;;;;;;;;;;;;;-1.32;73.95;99765.88;4912608;29;19931;-67
2022/12/29 10:11:22;;;;;;;;;;;;;;;-1.25;73.68;99762.38;4913215;29;20363;-68
2022/12/29 10:13:57;;;;;;;;;;;;;;;-1.36;73.88;99766.44;4913156;29;19931;-68
2022/12/29 10:16:27;;;;;;;;;;;;;;;-1.50;74.08;99766.38;4910517;29;19986;-67
2022/12/29 10:19:06;;;;;;;;;;;;;;;-1.58;74.45;99761.97;4912947;29;19938;-67
2022/12/29 10:21:39;;;;;;;;;;;;;;;-1.59;75.01;99767.56;4911570;29;19939;-68
2022/12/29 10:24:07;;;;;;;;;;;;;;;-1.65;75.20;99771.00;4911436;29;20029;-67
2022/12/29 10:26:37;;;;;;;;;;;;;;;-1.72;75.20;99760.22;4911626;29;19931;-68
2022/12/29 10:29:05;;;;;;;;;;;;;;;-1.73;75.28;99766.63;4911133;29;19930;-67
2022/12/29 10:31:34;;;;;;;;;;;;;;;-1.73;75.75;99759.41;4912574;29;20319;-67
2022/12/29 10:34:01;;;;;;;;;;;;;;;-1.68;75.78;99768.72;4910001;29;19931;-68
2022/12/29 10:36:33;;;;;;;;;;;;;;;-1.59;75.50;99771.06;4912258;29;19938;-68
2022/12/29 10:39:04;;;;;;;;;;;;;;;-1.58;75.38;99771.91;4911452;29;19930;-67
2022/12/29 10:41:36;;;;;;;;;;;;;;;-1.55;75.47;99770.69;4895506;29;20020;-68
2022/12/29 10:44:02;;;;;;;;;;;;;;;-1.49;75.52;99770.69;4910137;29;20029;-67
2022/12/29 10:46:33;;;;;;;;;;;;;;;-1.35;75.33;99771.63;4909086;29;20512;-67
2022/12/29 10:48:59;;;;;;;;;;;;;;;-1.22;74.90;99775.44;4910928;29;20507;-67
2022/12/29 10:51:25;;;;;;;;;;;;;;;-1.26;74.53;99774.16;4912648;29;19931;-68
2022/12/29 10:53:53;;;;;;;;;;;;;;;-1.31;74.98;99766.72;4911009;29;20556;-67
2022/12/29 10:56:25;;;;;;;;;;;;;;;-1.36;74.60;99767.28;4911207;29;19954;-67
2022/12/29 10:58:51;;;;;;;;;;;;;;;-1.41;74.88;99755.50;4909650;29;19935;-67
2022/12/29 11:01:18;;;;;;;;;;;;;;;-1.41;74.97;99753.63;4908770;29;20454;-68
2022/12/29 11:03:52;;;;;;;;;;;;;;;-1.52;75.01;99760.38;4910704;29;20403;-67
2022/12/29 11:06:22;;;;;;;;;;;;;;;-1.55;75.42;99749.22;4905519;29;19938;-68
2022/12/29 11:08:52;;;;;;;;;;;;;;;-1.51;75.36;99770.06;4908875;29;20009;-68
2022/12/29 11:11:22;;;;;;;;;;;;;;;-1.50;75.30;99762.88;4909435;29;19963;-68
2022/12/29 11:13:49;;;;;;;;;;;;;;;-1.49;75.04;99746.56;4911886;29;19935;-68
2022/12/29 11:16:15;;;;;;;;;;;;;;;-1.54;75.30;99754.38;4910822;29;20022;-68
2022/12/29 11:18:42;;;;;;;;;;;;;;;-1.55;75.25;99747.38;4908250;29;20037;-68
2022/12/29 11:21:26;;;;;;;;;;;;;;;-1.58;75.31;99748.56;4911398;29;19938;-67
2022/12/29 11:23:55;;;;;;;;;;;;;;;-1.60;75.66;99750.63;4920381;29;20034;-67
2022/12/29 11:26:22;;;;;;;;;;;;;;;-1.60;75.61;99753.31;4908479;29;19995;-67
2022/12/29 11:29:03;;;;;;;;;;;;;;;-1.64;75.56;99757.41;4910058;29;20022;-67
2022/12/29 11:31:29;;;;;;;;;;;;;;;-1.69;75.69;99754.50;4910576;29;19979;-67
2022/12/29 11:33:55;;;;;;;;;;;;;;;-1.71;75.79;99754.69;4910631;29;19931;-67
2022/12/29 11:36:23;;;;;;;;;;;;;;;-1.72;75.80;99749.50;4910843;29;19931;-68
2022/12/29 11:38:50;;;;;;;;;;;;;;;-1.64;76.06;99746.69;4908479;29;19966;-67
2022/12/29 11:41:21;;;;;;;;;;;;;;;-1.56;75.56;99751.06;4909317;29;19931;-67
2022/12/29 11:43:47;;;;;;;;;;;;;;;-1.57;75.84;99758.28;4909248;29;20395;-67
2022/12/29 11:46:14;;;;;;;;;;;;;;;-1.66;76.00;99742.53;4908634;29;20365;-67
2022/12/29 11:48:41;;;;;;;;;;;;;;;-1.64;76.35;99753.88;4908538;29;19938;-68
2022/12/29 11:51:07;;;;;;;;;;;;;;;-1.57;75.94;99752.91;4911156;29;19931;-68
2022/12/29 11:53:39;;;;;;;;;;;;;;;-1.60;76.25;99758.66;4909962;29;19958;-68
2022/12/29 11:56:05;;;;;;;;;;;;;;;-1.59;76.35;99756.84;4910041;29;19931;-68
2022/12/29 11:58:33;;;;;;;;;;;;;;;-1.64;76.41;99764.63;4905967;29;19931;-67
2022/12/29 12:01:01;;;;;;;;;;;;;;;-1.63;76.40;99764.44;4893706;29;19931;-67
2022/12/29 12:03:30;;;;;;;;;;;;;;;-1.61;76.42;99766.94;4907639;29;20019;-67
2022/12/29 12:05:57;;;;;;;;;;;;;;;-1.54;76.69;99775.03;4909084;29;19938;-67
2022/12/29 12:08:30;;;;;;;;;;;;;;;-1.48;76.29;99774.22;4913446;29;20306;-68
2022/12/29 12:11:03;;;;;;;;;;;;;;;-1.43;76.29;99777.97;4916054;29;19931;-68
2022/12/29 12:13:31;;;;;;;;;;;;;;;-1.36;76.06;99787.91;4898648;29;19937;-68
2022/12/29 12:15:59;;;;;;;;;;;;;;;-1.41;76.32;99782.31;4916841;28;19938;-68
2022/12/29 12:18:31;;;;;;;;;;;;;;;-1.47;76.61;99781.25;4917808;29;19957;-67
2022/12/29 12:21:04;;;;;;;;;;;;;;;-1.54;76.69;99783.88;4914988;29;19934;-67
2022/12/29 12:23:36;;;;;;;;;;;;;;;-1.54;76.96;99783.06;4917962;29;19931;-67
2022/12/29 12:26:09;;;;;;;;;;;;;;;-1.54;77.26;99778.53;4912743;29;19935;-68
2022/12/29 12:28:37;;;;;;;;;;;;;;;-1.52;77.10;99775.66;4915876;29;20034;-67
2022/12/29 12:31:06;;;;;;;;;;;;;;;-1.60;77.18;99769.41;4933227;29;20029;-67
2022/12/29 12:33:35;;;;;;;;;;;;;;;-1.60;77.38;99765.91;4916339;29;19938;-67
2022/12/29 12:36:08;;;;;;;;;;;;;;;-1.60;77.36;99758.66;4916775;29;19931;-68
2022/12/29 12:38:40;;;;;;;;;;;;;;;-1.58;77.28;99767.34;4927956;29;19931;-68
2022/12/29 12:41:10;;;;;;;;;;;;;;;-1.53;77.46;99771.31;4910914;29;19938;-67
2022/12/29 12:43:44;;;;;;;;;;;;;;;-1.53;77.17;99772.13;4917416;29;20319;-67
2022/12/29 12:46:24;;;;;;;;;;;;;;;-1.53;77.38;99776.69;4914070;29;19998;-67
2022/12/29 12:49:01;;;;;;;;;;;;;;;-1.53;77.81;99772.13;4896353;29;19938;-67
2022/12/29 12:51:32;;;;;;;;;;;;;;;-1.57;77.86;99760.94;4919736;28;19967;-68
2022/12/29 12:54:04;;;;;;;;;;;;;;;-1.60;77.76;99764.03;4917892;29;19938;-67
2022/12/29 12:56:48;;;;;;;;;;;;;;;-1.54;78.06;99765.09;4919357;29;19930;-67
2022/12/29 12:59:21;;;;;;;;;;;;;;;-1.53;77.83;99765.94;4936125;29;19961;-67
2022/12/29 13:01:51;;;;;;;;;;;;;;;-1.52;77.99;99765.75;4915108;29;20428;-67
2022/12/29 13:04:34;;;;;;;;;;;;;;;-1.51;77.90;99762.03;4920372;29;20029;-68
2022/12/29 13:07:06;;;;;;;;;;;;;;;-1.50;77.96;99768.22;4901434;29;20045;-66
2022/12/29 13:09:44;;;;;;;;;;;;;;;-1.52;77.82;99768.41;4915660;29;19931;-66
2022/12/29 13:12:17;;;;;;;;;;;;;;;-1.53;77.97;99779.34;4915004;29;19938;-66
2022/12/29 13:14:50;;;;;;;;;;;;;;;-1.51;78.11;99774.63;4917343;29;19941;-66
2022/12/29 13:17:20;;;;;;;;;;;;;;;-1.48;78.13;99775.06;4917234;29;19931;-66
2022/12/29 13:19:52;;;;;;;;;;;;;;;-1.45;78.39;99781.88;4915583;29;19938;-66
2022/12/29 13:22:23;;;;;;;;;;;;;;;-1.45;78.51;99773.81;4915900;29;19946;-66
2022/12/29 13:25:14;;;;;;;;;;;;;;;-1.44;78.67;99775.47;4916341;29;19953;-66
2022/12/29 13:27:44;;;;;;;;;;;;;;;-1.39;78.48;99778.44;4919192;29;19931;-66
2022/12/29 13:30:15;;;;;;;;;;;;;;;-1.43;78.63;99769.94;4933152;28;19966;-66
2022/12/29 13:32:47;;;;;;;;;;;;;;;-1.41;78.70;99772.41;4919846;28;19938;-66